createdAt,value
2023-03-23T00:03:10.104Z,25.88
2023-03-23T00:07:10.338Z,25.88
2023-03-23T00:11:10.107Z,25.91
2023-03-23T00:15:10.018Z,25.86
2023-03-23T00:19:10.417Z,25.89
2023-03-23T00:23:09.960Z,25.89
2023-03-23T00:27:09.906Z,25.88
2023-03-23T00:31:09.821Z,25.89
2023-03-23T00:35:09.980Z,25.86
2023-03-23T00:39:09.914Z,25.86
2023-03-23T00:43:09.889Z,25.91
2023-03-23T00:47:10.888Z,25.92
2023-03-23T00:51:09.833Z,25.88
2023-03-23T00:55:09.793Z,25.88
2023-03-23T00:59:09.781Z,25.88
2023-03-23T01:03:09.912Z,25.86
2023-03-23T01:07:09.779Z,25.89
2023-03-23T01:11:09.733Z,25.89
2023-03-23T01:15:09.648Z,25.86
2023-03-23T01:19:09.633Z,25.86
2023-03-23T01:23:09.597Z,25.89
2023-03-23T01:27:09.569Z,25.91
2023-03-23T01:31:14.543Z,25.86
2023-03-23T01:35:10.538Z,25.89
2023-03-23T01:39:09.541Z,25.91
2023-03-23T01:43:09.456Z,25.89
2023-03-23T01:47:09.457Z,25.91
2023-03-23T01:51:09.403Z,25.89
2023-03-23T01:55:09.379Z,25.89
2023-03-23T01:59:09.356Z,25.91
2023-03-23T02:03:09.273Z,25.91
2023-03-23T02:07:10.268Z,25.93
2023-03-23T02:11:09.266Z,25.93
2023-03-23T02:15:10.224Z,25.92
2023-03-23T02:19:09.164Z,25.92
2023-03-23T02:23:09.390Z,25.91
2023-03-23T02:27:09.326Z,25.93
2023-03-23T02:31:09.385Z,25.91
2023-03-23T02:35:09.318Z,25.91
2023-03-23T02:39:09.238Z,25.89
2023-03-23T02:43:09.212Z,25.93
2023-03-23T02:47:09.226Z,25.91
2023-03-23T02:51:09.099Z,25.89
2023-03-23T02:55:09.122Z,25.91
2023-03-23T02:59:09.043Z,25.92
2023-03-23T03:03:09.191Z,25.92
2023-03-23T03:07:09.191Z,25.91
2023-03-23T03:11:09.061Z,25.91
2023-03-23T03:15:09.091Z,25.92
2023-03-23T03:19:09.004Z,25.92
2023-03-23T03:23:08.979Z,25.93
2023-03-23T03:27:08.950Z,25.91
2023-03-23T03:31:09.182Z,25.91
2023-03-23T03:35:09.156Z,25.93
2023-03-23T03:39:09.075Z,25.92
2023-03-23T03:43:09.039Z,25.92
2023-03-23T03:47:09.041Z,25.93
2023-03-23T03:51:08.987Z,25.93
2023-03-23T03:55:08.979Z,25.91
2023-03-23T03:59:21.848Z,25.89
2023-03-23T04:03:09.896Z,25.91
2023-03-23T04:07:08.934Z,25.92
2023-03-23T04:11:08.939Z,25.91
2023-03-23T04:15:09.900Z,25.91
2023-03-23T04:19:09.880Z,25.95
2023-03-23T04:23:08.860Z,25.93
2023-03-23T04:27:09.820Z,25.93
2023-03-23T04:31:08.835Z,25.95
2023-03-23T04:35:12.709Z,25.92
2023-03-23T04:39:09.999Z,25.92
2023-03-23T04:43:08.998Z,25.89
2023-03-23T04:47:08.978Z,25.91
2023-03-23T04:51:08.894Z,25.92
2023-03-23T04:55:08.843Z,25.89
2023-03-23T04:59:08.818Z,25.89
2023-03-23T05:03:08.792Z,25.91
2023-03-23T05:07:08.738Z,25.89
2023-03-23T05:11:09.074Z,25.91
2023-03-23T05:15:08.685Z,25.92
2023-03-23T05:19:08.661Z,25.89
2023-03-23T05:23:08.581Z,25.93
2023-03-23T05:27:08.587Z,25.93
2023-03-23T05:31:08.999Z,25.93
2023-03-23T05:35:09.490Z,25.95
2023-03-23T05:39:08.438Z,25.95
2023-03-23T05:43:08.424Z,25.99
2023-03-23T05:47:08.357Z,25.99
2023-03-23T05:51:08.345Z,26.02
2023-03-23T05:55:08.386Z,26.05
2023-03-23T05:59:08.427Z,26.07
2023-03-23T06:03:09.533Z,26.09
2023-03-23T06:07:08.727Z,26.13
2023-03-23T06:11:09.004Z,26.16
2023-03-23T06:15:09.081Z,26.16
2023-03-23T06:19:09.197Z,26.17
2023-03-23T06:23:10.032Z,26.19
2023-03-23T06:27:09.592Z,26.15
2023-03-23T06:31:10.642Z,26.17
2023-03-23T06:35:10.299Z,26.16
2023-03-23T06:39:10.098Z,26.17
2023-03-23T06:43:10.389Z,26.24
2023-03-23T06:47:10.340Z,26.36
2023-03-23T06:51:10.595Z,26.55
2023-03-23T06:55:10.355Z,26.64
2023-03-23T06:59:10.424Z,26.75
2023-03-23T07:03:10.534Z,26.84
2023-03-23T07:07:10.986Z,26.95
2023-03-23T07:11:11.818Z,27.03
2023-03-23T07:15:10.554Z,27.12
2023-03-23T07:19:10.727Z,27.18
2023-03-23T07:23:10.506Z,27.22
2023-03-23T07:27:10.762Z,27.26
2023-03-23T07:31:11.066Z,27.38
2023-03-23T07:35:11.937Z,27.18
2023-03-23T07:39:11.052Z,26.70
2023-03-23T07:43:11.358Z,26.58
2023-03-23T07:47:11.295Z,26.58
2023-03-23T07:51:11.518Z,26.61
2023-03-23T07:55:11.145Z,26.68
2023-03-23T07:59:12.037Z,26.77
2023-03-23T08:03:13.106Z,26.90
2023-03-23T08:07:12.536Z,27.02
2023-03-23T08:11:12.561Z,27.06
2023-03-23T08:15:11.642Z,27.11
2023-03-23T08:19:11.319Z,27.03
2023-03-23T08:23:11.390Z,26.98
2023-03-23T08:27:11.338Z,26.98
2023-03-23T08:31:15.488Z,27.01
2023-03-23T08:35:11.261Z,26.90
2023-03-23T08:39:11.690Z,26.87
2023-03-23T08:43:11.558Z,26.77
2023-03-23T08:47:11.953Z,26.68
2023-03-23T08:51:11.665Z,26.57
2023-03-23T08:55:11.649Z,26.46
2023-03-23T08:59:11.733Z,26.34
2023-03-23T09:03:11.846Z,26.27
2023-03-23T09:07:11.881Z,26.22
2023-03-23T09:11:11.936Z,26.17
2023-03-23T09:15:13.633Z,26.19
2023-03-23T09:19:12.025Z,26.19
2023-03-23T09:23:12.105Z,26.24
2023-03-23T09:27:12.401Z,26.30
2023-03-23T09:31:12.280Z,26.36
2023-03-23T09:35:12.332Z,26.34
2023-03-23T09:39:12.324Z,26.36
2023-03-23T09:43:12.338Z,26.33
2023-03-23T09:47:14.100Z,26.48
2023-03-23T09:51:12.459Z,26.63
2023-03-23T09:55:12.452Z,26.73
2023-03-23T09:59:12.641Z,26.84
2023-03-23T10:03:12.828Z,26.95
2023-03-23T10:07:12.798Z,27.06
2023-03-23T10:11:13.212Z,27.19
2023-03-23T10:15:12.576Z,27.28
2023-03-23T10:19:12.666Z,27.35
2023-03-23T10:23:12.583Z,27.40
2023-03-23T10:27:12.543Z,27.52
2023-03-23T10:31:13.694Z,27.60
2023-03-23T10:35:12.488Z,27.63
2023-03-23T10:39:12.412Z,27.69
2023-03-23T10:43:12.356Z,27.71
2023-03-23T10:47:12.317Z,27.73
2023-03-23T10:51:12.338Z,27.79
2023-03-23T10:55:12.238Z,27.88
2023-03-23T10:59:12.216Z,27.88
2023-03-23T11:03:12.162Z,27.81
2023-03-23T11:07:12.119Z,27.76
2023-03-23T11:11:12.136Z,27.70
2023-03-23T11:15:12.146Z,27.64
2023-03-23T11:19:13.106Z,27.59
2023-03-23T11:23:14.105Z,27.50
2023-03-23T11:27:12.513Z,27.48
2023-03-23T11:31:12.736Z,27.42
2023-03-23T11:35:18.982Z,27.36
2023-03-23T11:39:13.744Z,27.36
2023-03-23T11:43:12.804Z,27.33
2023-03-23T11:47:13.838Z,27.30
2023-03-23T11:51:13.168Z,27.35
2023-03-23T11:55:13.336Z,27.30
2023-03-23T11:59:13.551Z,27.33
2023-03-23T12:03:13.730Z,27.35
2023-03-23T12:07:14.650Z,27.35
2023-03-23T12:11:14.112Z,27.33
2023-03-23T12:15:14.333Z,27.32
2023-03-23T12:19:14.532Z,27.35
2023-03-23T12:23:15.545Z,27.33
2023-03-23T12:27:14.920Z,27.29
2023-03-23T12:31:15.103Z,27.29
2023-03-23T12:35:15.301Z,27.33
2023-03-23T12:39:15.523Z,27.48
2023-03-23T12:43:18.701Z,27.60
2023-03-23T12:47:15.652Z,27.67
2023-03-23T12:51:16.154Z,27.77
2023-03-23T12:55:15.512Z,27.84
2023-03-23T12:59:15.482Z,27.91
2023-03-23T13:03:15.520Z,27.96
2023-03-23T13:07:15.439Z,28.03
2023-03-23T13:11:15.370Z,28.07
2023-03-23T13:15:15.349Z,28.11
2023-03-23T13:19:15.342Z,28.14
2023-03-23T13:23:15.317Z,28.17
2023-03-23T13:27:15.269Z,28.19
2023-03-23T13:31:15.193Z,28.18
2023-03-23T13:35:15.534Z,28.19
2023-03-23T13:39:15.244Z,28.22
2023-03-23T13:43:15.253Z,28.18
2023-03-23T13:47:15.229Z,28.12
2023-03-23T13:51:15.239Z,28.08
2023-03-23T13:55:15.113Z,28.04
2023-03-23T13:59:15.099Z,27.97
2023-03-23T14:03:15.174Z,27.96
2023-03-23T14:07:15.008Z,27.88
2023-03-23T14:11:15.109Z,27.80
2023-03-23T14:15:14.911Z,27.79
2023-03-23T14:19:15.236Z,27.73
2023-03-23T14:23:15.266Z,27.70
2023-03-23T14:27:14.819Z,27.66
2023-03-23T14:31:14.783Z,27.66
2023-03-23T14:35:14.761Z,27.61
2023-03-23T14:39:15.711Z,27.59
2023-03-23T14:43:14.661Z,27.54
2023-03-23T14:47:14.654Z,27.53
2023-03-23T14:51:14.625Z,27.53
2023-03-23T14:55:14.617Z,27.57
2023-03-23T14:59:14.573Z,27.54
2023-03-23T15:03:14.469Z,27.52
2023-03-23T15:07:14.446Z,27.52
2023-03-23T15:11:14.412Z,27.48
2023-03-23T15:15:16.222Z,27.43
2023-03-23T15:19:14.705Z,27.43
2023-03-23T15:23:14.885Z,27.43
2023-03-23T15:27:15.018Z,27.39
2023-03-23T15:31:15.197Z,27.38
2023-03-23T15:35:15.373Z,27.33
2023-03-23T15:39:15.509Z,27.33
2023-03-23T15:43:15.722Z,27.30
2023-03-23T15:47:15.952Z,27.25
2023-03-23T15:51:16.166Z,27.21
2023-03-23T15:55:16.152Z,27.18
2023-03-23T15:59:16.078Z,27.16
2023-03-23T16:03:16.112Z,27.15
2023-03-23T16:07:16.034Z,27.09
2023-03-23T16:11:15.995Z,27.05
2023-03-23T16:15:15.918Z,27.05
2023-03-23T16:19:15.888Z,27.01
2023-03-23T16:23:16.077Z,26.97
2023-03-23T16:27:16.832Z,26.97
2023-03-23T16:31:15.852Z,26.97
2023-03-23T16:35:16.769Z,26.90
2023-03-23T16:39:16.043Z,26.90
2023-03-23T16:43:16.050Z,26.87
2023-03-23T16:47:16.062Z,26.82
2023-03-23T16:51:16.079Z,26.82
2023-03-23T16:55:16.058Z,26.80
2023-03-23T16:59:16.121Z,26.77
2023-03-23T17:03:16.373Z,26.77
2023-03-23T17:07:16.102Z,26.75
2023-03-23T17:11:16.043Z,26.74
2023-03-23T17:15:16.071Z,26.71
2023-03-23T17:19:16.113Z,26.71
2023-03-23T17:23:16.096Z,26.67
2023-03-23T17:27:16.189Z,26.65
2023-03-23T17:31:16.257Z,26.65
2023-03-23T17:35:16.255Z,26.64
2023-03-23T17:39:16.245Z,26.61
2023-03-23T17:43:16.313Z,26.58
2023-03-23T17:47:16.339Z,26.60
2023-03-23T17:51:16.380Z,26.58
2023-03-23T17:55:16.451Z,26.58
2023-03-23T17:59:17.295Z,26.55
2023-03-23T18:03:16.543Z,26.54
2023-03-23T18:07:16.588Z,26.53
2023-03-23T18:11:16.681Z,26.54
2023-03-23T18:15:16.754Z,26.50
2023-03-23T18:19:16.778Z,26.48
2023-03-23T18:23:16.840Z,26.46
2023-03-23T18:27:16.926Z,26.47
2023-03-23T18:31:17.795Z,26.46
2023-03-23T18:35:17.004Z,26.44
2023-03-23T18:39:17.110Z,26.43
2023-03-23T18:43:17.174Z,26.43
2023-03-23T18:47:17.233Z,26.39
2023-03-23T18:51:17.281Z,26.39
2023-03-23T18:55:17.575Z,26.39
2023-03-23T18:59:17.477Z,26.39
2023-03-23T19:03:17.567Z,26.39
2023-03-23T19:07:17.577Z,26.33
2023-03-23T19:11:17.651Z,26.34
2023-03-23T19:15:17.719Z,26.34
2023-03-23T19:19:17.874Z,26.32
2023-03-23T19:23:17.857Z,26.32
2023-03-23T19:27:18.001Z,26.33
2023-03-23T19:31:18.035Z,26.30
2023-03-23T19:35:18.695Z,26.29
2023-03-23T19:39:18.206Z,26.30
2023-03-23T19:43:18.301Z,26.29
2023-03-23T19:47:18.418Z,26.27
2023-03-23T19:51:18.776Z,26.26
2023-03-23T19:55:18.575Z,26.23
2023-03-23T19:59:18.653Z,26.24
2023-03-23T20:03:18.847Z,26.23
2023-03-23T20:07:21.317Z,26.22
2023-03-23T20:11:18.818Z,26.22
2023-03-23T20:15:18.759Z,26.19
2023-03-23T20:19:19.151Z,26.19
2023-03-23T20:23:18.670Z,26.20
2023-03-23T20:27:18.679Z,26.19
2023-03-23T20:31:23.118Z,26.20
2023-03-23T20:35:19.625Z,26.19
2023-03-23T20:39:18.925Z,26.15
2023-03-23T20:43:18.563Z,26.16
2023-03-23T20:47:18.732Z,26.15
2023-03-23T20:51:18.813Z,26.13
2023-03-23T20:55:18.981Z,26.12
2023-03-23T20:59:19.155Z,26.10
2023-03-23T21:03:19.455Z,26.12
2023-03-23T21:07:19.432Z,26.09
2023-03-23T21:11:20.346Z,26.12
2023-03-23T21:15:19.771Z,26.09
2023-03-23T21:19:20.598Z,26.05
2023-03-23T21:23:20.202Z,26.07
2023-03-23T21:27:20.218Z,26.06
2023-03-23T21:31:20.387Z,26.02
2023-03-23T21:35:20.666Z,26.05
2023-03-23T21:39:21.225Z,26.00
2023-03-23T21:43:20.895Z,26.00
2023-03-23T21:47:21.101Z,26.00
2023-03-23T21:51:21.353Z,26.02
2023-03-23T21:55:21.957Z,26.02
2023-03-23T21:59:24.889Z,26.00
2023-03-23T22:03:21.649Z,25.99
2023-03-23T22:07:21.605Z,25.96
2023-03-23T22:11:21.504Z,25.97
2023-03-23T22:15:21.528Z,25.96
2023-03-23T22:19:22.472Z,25.95
2023-03-23T22:23:21.509Z,25.95
2023-03-23T22:27:21.672Z,25.95
2023-03-23T22:31:22.027Z,25.95
2023-03-23T22:35:22.389Z,25.95
2023-03-23T22:39:22.467Z,25.95
2023-03-23T22:43:22.542Z,25.92
2023-03-23T22:47:22.652Z,25.93
2023-03-23T22:51:22.466Z,25.92
2023-03-23T22:55:22.474Z,25.93
2023-03-23T22:59:22.412Z,25.93
2023-03-23T23:03:22.368Z,25.93
2023-03-23T23:07:22.390Z,25.92
2023-03-23T23:11:22.309Z,25.89
2023-03-23T23:15:22.257Z,25.91
2023-03-23T23:19:22.305Z,25.91
2023-03-23T23:23:22.247Z,25.91
2023-03-23T23:27:22.631Z,25.89
2023-03-23T23:31:22.500Z,25.88
2023-03-23T23:35:22.648Z,25.88
2023-03-23T23:39:22.118Z,25.88
2023-03-23T23:43:23.937Z,25.88
2023-03-23T23:47:21.987Z,25.84
2023-03-23T23:51:22.132Z,25.85
2023-03-23T23:55:22.413Z,25.86
2023-03-23T23:59:22.506Z,25.85
